Terminal Aerodrome Forecast
Issued by NWS Northern Indiana

Home | Current Version | Previous Version | Text Only | Print | Product List | Glossary On
Versions: 1 2 3 4 5 6 7 8 9 10 11 12 13 14 15 16 17 18
000
FTUS43 KIWX 011722
TAFFWA
TAF
KFWA 011722Z 0118/0218 23008KT P6SM VCSH BKN035
     FM020100 23004KT P6SM SCT035 BKN060
      TEMPO 0209/0213 4SM BR=

USA.gov is the U.S. government's official web portal to all federal, state and local government web resources and services.